createdAt,value
2023-05-12T00:00:11.104Z,12.49
2023-05-12T00:01:11.077Z,12.49
2023-05-12T00:02:11.084Z,12.48
2023-05-12T00:03:11.226Z,12.48
2023-05-12T00:04:11.256Z,12.46
2023-05-12T00:05:11.074Z,12.48
2023-05-12T00:06:11.078Z,12.51
2023-05-12T00:07:11.089Z,12.51
2023-05-12T00:08:11.086Z,12.51
2023-05-12T00:09:11.071Z,12.50
2023-05-12T00:10:11.087Z,12.48
2023-05-12T00:11:11.078Z,12.50
2023-05-12T00:12:11.079Z,12.51
2023-05-12T00:13:11.128Z,12.49
2023-05-12T00:14:11.075Z,12.52
2023-05-12T00:15:11.074Z,12.53
2023-05-12T00:16:11.141Z,12.55
2023-05-12T00:17:11.081Z,12.58
2023-05-12T00:18:11.073Z,12.62
2023-05-12T00:19:11.123Z,12.62
2023-05-12T00:20:11.078Z,12.65
2023-05-12T00:21:12.073Z,12.66
2023-05-12T00:22:11.076Z,12.68
2023-05-12T00:23:11.078Z,12.69
2023-05-12T00:24:11.080Z,12.66
2023-05-12T00:25:11.089Z,12.67
2023-05-12T00:26:11.081Z,12.63
2023-05-12T00:27:11.073Z,12.62
2023-05-12T00:28:11.084Z,12.58
2023-05-12T00:29:11.080Z,12.60
2023-05-12T00:30:11.078Z,12.63
2023-05-12T00:31:11.110Z,12.61
2023-05-12T00:32:11.083Z,12.61
2023-05-12T00:33:11.094Z,12.56
2023-05-12T00:34:11.081Z,12.58
2023-05-12T00:35:11.085Z,12.54
2023-05-12T00:36:11.091Z,12.57
2023-05-12T00:37:11.083Z,12.59
2023-05-12T00:38:11.083Z,12.55
2023-05-12T00:39:11.086Z,12.55
2023-05-12T00:40:11.081Z,12.56
2023-05-12T00:41:11.089Z,12.53
2023-05-12T00:42:11.082Z,12.50
2023-05-12T00:43:11.088Z,12.47
2023-05-12T00:44:11.092Z,12.49
2023-05-12T00:45:11.079Z,12.49
2023-05-12T00:46:11.126Z,12.49
2023-05-12T00:47:11.095Z,12.49
2023-05-12T00:48:11.139Z,12.49
2023-05-12T00:49:11.087Z,12.47
2023-05-12T00:50:11.115Z,12.48
2023-05-12T00:51:11.085Z,12.47
2023-05-12T00:52:11.086Z,12.46
2023-05-12T00:53:11.090Z,12.43
2023-05-12T00:54:11.088Z,12.45
2023-05-12T00:55:11.090Z,12.45
2023-05-12T00:56:11.092Z,12.37
2023-05-12T00:57:11.105Z,12.39
2023-05-12T00:58:11.092Z,12.37
2023-05-12T00:59:11.096Z,12.36
2023-05-12T01:00:11.087Z,12.40
2023-05-12T01:01:11.092Z,12.42
2023-05-12T01:02:11.127Z,12.39
2023-05-12T01:03:11.164Z,12.37
2023-05-12T01:04:11.077Z,12.36
2023-05-12T01:05:11.095Z,12.31
2023-05-12T01:06:19.061Z,12.34
2023-05-12T01:07:19.066Z,12.33
2023-05-12T01:08:11.086Z,12.33
2023-05-12T01:09:11.078Z,12.29
2023-05-12T01:10:19.374Z,12.32
2023-05-12T01:11:11.074Z,12.32
2023-05-12T01:12:11.077Z,12.28
2023-05-12T01:13:11.062Z,12.29
2023-05-12T01:14:11.060Z,12.30
2023-05-12T01:15:11.072Z,12.28
2023-05-12T01:16:13.068Z,12.27
2023-05-12T01:17:12.106Z,12.30
2023-05-12T01:18:11.121Z,12.29
2023-05-12T01:19:19.125Z,12.29
2023-05-12T01:20:11.062Z,12.28
2023-05-12T01:21:11.066Z,12.31
2023-05-12T01:22:11.094Z,12.22
2023-05-12T01:23:11.088Z,12.22
2023-05-12T01:24:11.081Z,12.24
2023-05-12T01:25:11.070Z,12.22
2023-05-12T01:26:11.074Z,12.20
2023-05-12T01:27:11.082Z,12.19
2023-05-12T01:28:11.070Z,12.19
2023-05-12T01:29:11.070Z,12.17
2023-05-12T01:30:11.081Z,12.14
2023-05-12T01:31:11.124Z,12.13
2023-05-12T01:32:11.076Z,12.13
2023-05-12T01:33:11.078Z,12.13
2023-05-12T01:34:14.067Z,12.14
2023-05-12T01:35:11.067Z,12.10
2023-05-12T01:36:11.069Z,12.08
2023-05-12T01:37:13.072Z,12.08
2023-05-12T01:38:11.066Z,12.10
2023-05-12T01:39:11.062Z,12.09
2023-05-12T01:40:11.072Z,12.09
2023-05-12T01:41:11.068Z,12.10
2023-05-12T01:42:11.072Z,12.11
2023-05-12T01:43:11.072Z,12.14
2023-05-12T01:44:11.066Z,12.16
2023-05-12T01:45:11.066Z,12.15
2023-05-12T01:46:11.264Z,12.15
2023-05-12T01:47:13.064Z,12.15
2023-05-12T01:48:11.065Z,12.15
2023-05-12T01:49:11.072Z,12.14
2023-05-12T01:50:11.070Z,12.17
2023-05-12T01:51:11.097Z,12.17
2023-05-12T01:52:11.069Z,12.16
2023-05-12T01:53:11.063Z,12.18
2023-05-12T01:54:11.075Z,12.18
2023-05-12T01:55:11.083Z,12.18
2023-05-12T01:56:11.063Z,12.21
2023-05-12T01:57:11.065Z,12.20
2023-05-12T01:58:11.064Z,12.19
2023-05-12T01:59:11.116Z,12.19
2023-05-12T02:00:11.071Z,12.21
2023-05-12T02:01:11.065Z,12.17
2023-05-12T02:02:11.166Z,12.14
2023-05-12T02:03:11.173Z,12.15
2023-05-12T02:04:12.206Z,12.17
2023-05-12T02:05:11.067Z,12.15
2023-05-12T02:06:11.078Z,12.17
2023-05-12T02:07:11.070Z,12.16
2023-05-12T02:08:11.066Z,12.15
2023-05-12T02:09:11.064Z,12.16
2023-05-12T02:10:11.076Z,12.15
2023-05-12T02:11:11.085Z,12.15
2023-05-12T02:12:11.065Z,12.17
2023-05-12T02:13:11.069Z,12.17
2023-05-12T02:14:11.064Z,12.17
2023-05-12T02:15:11.074Z,12.16
2023-05-12T02:16:11.134Z,12.09
2023-05-12T02:17:11.085Z,12.07
2023-05-12T02:18:11.097Z,12.08
2023-05-12T02:19:11.112Z,12.08
2023-05-12T02:20:11.080Z,12.07
2023-05-12T02:21:11.068Z,12.00
2023-05-12T02:22:11.073Z,11.99
2023-05-12T02:23:11.075Z,11.95
2023-05-12T02:24:12.333Z,11.91
2023-05-12T02:25:11.085Z,11.89
2023-05-12T02:26:11.071Z,11.86
2023-05-12T02:27:11.068Z,11.87
2023-05-12T02:28:14.073Z,11.83
2023-05-12T02:29:11.080Z,11.79
2023-05-12T02:30:11.072Z,11.78
2023-05-12T02:31:11.071Z,11.70
2023-05-12T02:32:11.127Z,11.67
2023-05-12T02:33:11.070Z,11.65
2023-05-12T02:34:11.075Z,11.64
2023-05-12T02:35:11.093Z,11.62
2023-05-12T02:36:11.074Z,11.68
2023-05-12T02:37:11.079Z,11.66
2023-05-12T02:38:11.082Z,11.64
2023-05-12T02:39:11.081Z,11.68
2023-05-12T02:40:11.076Z,11.70
2023-05-12T02:41:11.082Z,11.71
2023-05-12T02:42:11.074Z,11.71
2023-05-12T02:43:11.069Z,11.68
2023-05-12T02:44:11.073Z,11.70
2023-05-12T02:45:11.070Z,11.68
2023-05-12T02:46:11.133Z,11.63
2023-05-12T02:47:11.078Z,11.58
2023-05-12T02:48:11.103Z,11.56
2023-05-12T02:49:11.086Z,11.57
2023-05-12T02:50:11.073Z,11.57
2023-05-12T02:51:11.085Z,11.49
2023-05-12T02:52:11.070Z,11.50
2023-05-12T02:53:11.075Z,11.47
2023-05-12T02:54:11.087Z,11.47
2023-05-12T02:55:11.079Z,11.46
2023-05-12T02:56:11.080Z,11.46
2023-05-12T02:57:11.080Z,11.46
2023-05-12T02:58:11.078Z,11.52
2023-05-12T02:59:11.075Z,11.51
2023-05-12T03:00:11.092Z,11.51
2023-05-12T03:01:11.700Z,11.54
2023-05-12T03:02:11.148Z,11.57
2023-05-12T03:03:11.245Z,11.56
2023-05-12T03:04:11.086Z,11.55
2023-05-12T03:05:11.076Z,11.52
2023-05-12T03:06:11.083Z,11.54
2023-05-12T03:07:11.080Z,11.45
2023-05-12T03:08:11.091Z,11.49
2023-05-12T03:09:11.076Z,11.46
2023-05-12T03:10:11.114Z,11.43
2023-05-12T03:11:11.086Z,11.40
2023-05-12T03:12:11.089Z,11.33
2023-05-12T03:13:11.091Z,11.33
2023-05-12T03:14:11.078Z,11.36
2023-05-12T03:15:11.078Z,11.35
2023-05-12T03:16:11.088Z,11.35
2023-05-12T03:17:11.160Z,11.29
2023-05-12T03:18:11.147Z,11.30
2023-05-12T03:19:11.211Z,11.33
2023-05-12T03:20:11.076Z,11.32
2023-05-12T03:21:11.080Z,11.33
2023-05-12T03:22:13.077Z,11.29
2023-05-12T03:23:11.081Z,11.31
2023-05-12T03:24:11.084Z,11.35
2023-05-12T03:25:11.103Z,11.34
2023-05-12T03:26:11.076Z,11.32
2023-05-12T03:27:11.080Z,11.33
2023-05-12T03:28:11.080Z,11.33
2023-05-12T03:29:11.074Z,11.35
2023-05-12T03:30:11.077Z,11.35
2023-05-12T03:31:11.086Z,11.29
2023-05-12T03:32:11.112Z,11.24
2023-05-12T03:33:11.084Z,11.20
2023-05-12T03:34:11.092Z,11.19
2023-05-12T03:35:11.100Z,11.21
2023-05-12T03:36:11.078Z,11.23
2023-05-12T03:37:11.088Z,11.25
2023-05-12T03:38:11.080Z,11.23
2023-05-12T03:39:12.086Z,11.23
2023-05-12T03:40:11.083Z,11.27
2023-05-12T03:41:11.080Z,11.21
2023-05-12T03:42:11.083Z,11.22
2023-05-12T03:43:11.079Z,11.25
2023-05-12T03:44:12.087Z,11.21
2023-05-12T03:45:11.090Z,11.23
2023-05-12T03:46:11.137Z,11.24
2023-05-12T03:47:11.202Z,11.27
2023-05-12T03:48:11.105Z,11.26
2023-05-12T03:49:11.086Z,11.26
2023-05-12T03:50:11.078Z,11.30
2023-05-12T03:51:11.086Z,11.29
2023-05-12T03:52:11.090Z,11.32
2023-05-12T03:53:11.082Z,11.31
2023-05-12T03:54:11.081Z,11.33
2023-05-12T03:55:11.085Z,11.34
2023-05-12T03:56:11.090Z,11.34
2023-05-12T03:57:11.090Z,11.32
2023-05-12T03:58:11.112Z,11.33
2023-05-12T03:59:11.082Z,11.34
2023-05-12T04:00:11.078Z,11.33
2023-05-12T04:01:11.073Z,11.33
2023-05-12T04:02:11.099Z,11.27
2023-05-12T04:03:11.157Z,11.27
2023-05-12T04:04:11.165Z,11.21
2023-05-12T04:05:12.065Z,11.22
2023-05-12T04:06:11.072Z,11.18
2023-05-12T04:07:11.066Z,11.19
2023-05-12T04:08:11.071Z,11.19
2023-05-12T04:09:11.060Z,11.23
2023-05-12T04:10:11.073Z,11.22
2023-05-12T04:11:11.081Z,11.24
2023-05-12T04:12:11.062Z,11.27
2023-05-12T04:13:11.069Z,11.24
2023-05-12T04:14:11.067Z,11.23
2023-05-12T04:15:11.080Z,11.19
2023-05-12T04:16:11.097Z,11.21
2023-05-12T04:17:11.066Z,11.18
2023-05-12T04:18:11.063Z,11.17
2023-05-12T04:19:11.127Z,11.15
2023-05-12T04:20:11.074Z,11.16
2023-05-12T04:21:11.063Z,11.15
2023-05-12T04:22:11.071Z,11.11
2023-05-12T04:23:11.073Z,11.10
2023-05-12T04:24:11.063Z,11.05
2023-05-12T04:25:11.090Z,11.05
2023-05-12T04:26:11.070Z,11.08
2023-05-12T04:27:11.067Z,11.12
2023-05-12T04:28:12.272Z,11.12
2023-05-12T04:29:11.070Z,11.15
2023-05-12T04:30:11.068Z,11.17
2023-05-12T04:31:11.072Z,11.19
2023-05-12T04:32:11.125Z,11.19
2023-05-12T04:33:11.095Z,11.19
2023-05-12T04:34:11.079Z,11.19
2023-05-12T04:35:11.073Z,11.19
2023-05-12T04:36:11.064Z,11.17
2023-05-12T04:37:11.075Z,11.12
2023-05-12T04:38:11.071Z,11.07
2023-05-12T04:39:11.073Z,11.06
2023-05-12T04:40:11.072Z,11.03
2023-05-12T04:41:11.073Z,11.00
2023-05-12T04:42:11.073Z,10.97
2023-05-12T04:44:13.071Z,10.94
2023-05-12T04:45:11.073Z,10.91
2023-05-12T04:46:11.092Z,10.87
2023-05-12T04:47:11.082Z,10.81
2023-05-12T04:48:11.071Z,10.83
2023-05-12T04:49:11.082Z,10.81
2023-05-12T04:50:11.092Z,10.78
2023-05-12T04:51:11.086Z,10.81
2023-05-12T04:52:11.068Z,10.82
2023-05-12T04:53:11.522Z,10.79
2023-05-12T04:54:12.115Z,10.81
2023-05-12T04:55:11.077Z,10.81
2023-05-12T04:56:11.076Z,10.78
2023-05-12T04:57:11.076Z,10.81
2023-05-12T04:58:11.075Z,10.81
2023-05-12T04:59:11.073Z,10.84
2023-05-12T05:00:11.077Z,10.84
2023-05-12T05:01:11.078Z,10.83
2023-05-12T05:02:11.092Z,10.83
2023-05-12T05:03:11.333Z,10.88
2023-05-12T05:04:11.069Z,10.94
2023-05-12T05:05:11.073Z,10.95
2023-05-12T05:06:11.082Z,10.92
2023-05-12T05:07:11.074Z,10.91
2023-05-12T05:08:11.074Z,10.94
2023-05-12T05:09:11.088Z,10.96
2023-05-12T05:10:11.086Z,10.97
2023-05-12T05:11:11.080Z,10.99
2023-05-12T05:12:11.074Z,11.00
2023-05-12T05:13:11.090Z,11.01
2023-05-12T05:14:11.078Z,11.01
2023-05-12T05:15:11.075Z,11.00
2023-05-12T05:16:11.138Z,11.03
2023-05-12T05:17:11.073Z,11.06
2023-05-12T05:18:11.117Z,11.07
2023-05-12T05:20:11.960Z,11.11
2023-05-12T05:21:11.137Z,11.06
2023-05-12T05:22:11.077Z,11.05
2023-05-12T05:23:11.081Z,11.05
2023-05-12T05:24:11.077Z,11.02
2023-05-12T05:25:11.090Z,11.00
2023-05-12T05:26:11.078Z,11.02
2023-05-12T05:27:11.084Z,11.03
2023-05-12T05:28:11.081Z,11.04
2023-05-12T05:29:11.077Z,11.05
2023-05-12T05:30:11.082Z,11.04
2023-05-12T05:31:15.106Z,11.08
2023-05-12T05:32:11.075Z,11.09
2023-05-12T05:33:11.082Z,11.15
2023-05-12T05:34:11.119Z,11.07
2023-05-12T05:35:11.075Z,11.11
2023-05-12T05:36:11.095Z,11.17
2023-05-12T05:37:11.081Z,11.17
2023-05-12T05:38:11.076Z,11.19
2023-05-12T05:39:11.102Z,11.20
2023-05-12T05:40:11.081Z,11.22
2023-05-12T05:41:11.075Z,11.25
2023-05-12T05:42:11.084Z,11.18
2023-05-12T05:43:11.077Z,11.18
2023-05-12T05:44:11.074Z,11.19
2023-05-12T05:45:11.082Z,11.27
2023-05-12T05:46:11.078Z,11.29
2023-05-12T05:47:11.167Z,11.29
2023-05-12T05:48:11.098Z,11.30
2023-05-12T05:49:11.083Z,11.30
2023-05-12T05:50:11.077Z,11.33
2023-05-12T05:51:11.082Z,11.33
2023-05-12T05:52:11.097Z,11.35
2023-05-12T05:53:11.084Z,11.36
2023-05-12T05:54:11.084Z,11.37
2023-05-12T05:55:11.086Z,11.35
2023-05-12T05:56:11.075Z,11.34
2023-05-12T05:57:11.084Z,11.33
2023-05-12T05:58:11.115Z,11.31
2023-05-12T05:59:11.082Z,11.33
2023-05-12T06:00:11.082Z,11.29
2023-05-12T06:01:11.080Z,11.30
2023-05-12T06:02:11.140Z,11.30
2023-05-12T06:03:11.121Z,11.28
2023-05-12T06:04:11.097Z,11.32
2023-05-12T06:05:11.642Z,11.34
2023-05-12T06:06:11.081Z,11.38
2023-05-12T06:07:11.086Z,11.38
2023-05-12T06:08:12.079Z,11.39
2023-05-12T06:09:11.075Z,11.39
2023-05-12T06:10:11.083Z,11.38
2023-05-12T06:11:11.076Z,11.39
2023-05-12T06:12:11.083Z,11.45
2023-05-12T06:13:11.087Z,11.40
2023-05-12T06:14:11.078Z,11.40
2023-05-12T06:15:11.190Z,11.37
2023-05-12T06:16:11.098Z,11.36
2023-05-12T06:17:11.077Z,11.42
2023-05-12T06:18:11.105Z,11.50
2023-05-12T06:19:11.131Z,11.52
2023-05-12T06:20:11.080Z,11.53
2023-05-12T06:21:11.074Z,11.56
2023-05-12T06:22:11.083Z,11.58
2023-05-12T06:23:11.087Z,11.63
2023-05-12T06:24:11.074Z,11.68
2023-05-12T06:25:11.086Z,11.71
2023-05-12T06:26:11.084Z,11.76
2023-05-12T06:27:11.076Z,11.76
2023-05-12T06:28:11.081Z,11.71
2023-05-12T06:29:11.084Z,11.71
2023-05-12T06:30:11.803Z,11.73
2023-05-12T06:31:11.086Z,11.76
2023-05-12T06:32:11.110Z,11.77
2023-05-12T06:33:11.117Z,11.81
2023-05-12T06:34:11.089Z,11.82
2023-05-12T06:35:11.081Z,11.86
2023-05-12T06:36:11.079Z,11.87
2023-05-12T06:37:11.086Z,11.88
2023-05-12T06:38:11.086Z,11.89
2023-05-12T06:39:11.082Z,11.88
2023-05-12T06:40:11.093Z,11.89
2023-05-12T06:41:11.093Z,11.89
2023-05-12T06:42:11.085Z,11.89
2023-05-12T06:43:11.091Z,11.85
2023-05-12T06:44:11.089Z,11.83
2023-05-12T06:45:13.104Z,11.82
2023-05-12T06:46:11.120Z,11.84
2023-05-12T06:47:11.087Z,11.83
2023-05-12T06:48:11.100Z,11.85
2023-05-12T06:49:11.100Z,11.80
2023-05-12T06:50:11.090Z,11.83
2023-05-12T06:51:11.085Z,11.78
2023-05-12T06:52:11.090Z,11.83
2023-05-12T06:53:11.092Z,11.85
2023-05-12T06:54:11.086Z,11.88
2023-05-12T06:55:11.100Z,11.93
2023-05-12T06:56:11.115Z,11.97
2023-05-12T06:57:11.084Z,11.99
2023-05-12T06:58:11.095Z,11.96
2023-05-12T06:59:11.106Z,11.97
2023-05-12T07:00:11.089Z,11.97
2023-05-12T07:01:11.096Z,12.01
2023-05-12T07:02:11.066Z,11.99
2023-05-12T07:03:13.240Z,12.02
2023-05-12T07:04:11.150Z,12.01
2023-05-12T07:05:11.065Z,11.96
2023-05-12T07:06:11.132Z,12.04
2023-05-12T07:07:11.066Z,12.04
2023-05-12T07:08:11.062Z,12.06
2023-05-12T07:09:11.068Z,12.09
2023-05-12T07:10:11.068Z,12.10
2023-05-12T07:11:11.065Z,12.09
2023-05-12T07:12:11.062Z,12.11
2023-05-12T07:13:11.065Z,12.10
2023-05-12T07:14:11.072Z,12.11
2023-05-12T07:15:11.064Z,12.07
2023-05-12T07:16:11.094Z,12.07
2023-05-12T07:17:11.073Z,12.07
2023-05-12T07:18:11.107Z,12.11
2023-05-12T07:19:12.090Z,12.05
2023-05-12T07:20:11.074Z,12.01
2023-05-12T07:21:11.061Z,12.03
2023-05-12T07:22:11.067Z,12.08
2023-05-12T07:23:11.073Z,12.06
2023-05-12T07:24:11.070Z,12.06
2023-05-12T07:25:11.111Z,12.10
2023-05-12T07:26:11.066Z,12.10
2023-05-12T07:27:11.078Z,12.03
2023-05-12T07:28:11.062Z,12.10
2023-05-12T07:29:13.675Z,12.12
2023-05-12T07:30:11.067Z,12.09
2023-05-12T07:31:11.092Z,12.10
2023-05-12T07:32:11.068Z,12.12
2023-05-12T07:33:11.145Z,12.10
2023-05-12T07:34:11.076Z,12.11
2023-05-12T07:35:11.070Z,12.15
2023-05-12T07:36:11.068Z,12.21
2023-05-12T07:37:11.073Z,12.26
2023-05-12T07:38:11.080Z,12.24
2023-05-12T07:39:11.088Z,12.27
2023-05-12T07:40:11.081Z,12.25
2023-05-12T07:41:11.069Z,12.29
2023-05-12T07:42:11.076Z,12.30
2023-05-12T07:43:11.079Z,12.31
2023-05-12T07:44:11.065Z,12.30
2023-05-12T07:45:11.073Z,12.31
2023-05-12T07:46:11.071Z,12.23
2023-05-12T07:47:11.122Z,12.14
2023-05-12T07:48:11.122Z,12.05
2023-05-12T07:49:11.072Z,12.03
2023-05-12T07:50:11.117Z,12.02
2023-05-12T07:51:11.070Z,12.00
2023-05-12T07:52:11.072Z,12.03
2023-05-12T07:53:11.069Z,11.98
2023-05-12T07:54:11.070Z,12.00
2023-05-12T07:55:11.074Z,12.00
2023-05-12T07:56:12.074Z,11.98
2023-05-12T07:57:11.077Z,11.87
2023-05-12T07:58:11.082Z,11.91
2023-05-12T07:59:11.070Z,11.96
2023-05-12T08:00:11.078Z,11.97
2023-05-12T08:01:11.078Z,12.01
2023-05-12T08:02:11.123Z,11.95
2023-05-12T08:03:11.151Z,11.93
2023-05-12T08:04:11.220Z,11.97
2023-05-12T08:05:11.076Z,11.95
2023-05-12T08:06:11.083Z,12.00
2023-05-12T08:07:11.079Z,12.00
2023-05-12T08:08:11.076Z,12.01
2023-05-12T08:09:11.069Z,12.10
2023-05-12T08:10:11.079Z,12.13
2023-05-12T08:11:11.098Z,12.18
2023-05-12T08:12:11.070Z,12.23
2023-05-12T08:13:11.070Z,12.15
2023-05-12T08:14:11.074Z,12.25
2023-05-12T08:15:11.077Z,12.27
2023-05-12T08:16:11.085Z,12.29
2023-05-12T08:17:11.153Z,12.21
2023-05-12T08:18:11.123Z,12.24
2023-05-12T08:19:11.096Z,12.30
2023-05-12T08:20:11.075Z,12.30
2023-05-12T08:21:11.072Z,12.28
2023-05-12T08:22:11.073Z,12.34
2023-05-12T08:23:11.082Z,12.41
2023-05-12T08:24:11.071Z,12.43
2023-05-12T08:25:12.539Z,12.46
2023-05-12T08:26:11.079Z,12.48
2023-05-12T08:27:11.073Z,12.48
2023-05-12T08:28:11.080Z,12.50
2023-05-12T08:29:12.081Z,12.52
2023-05-12T08:30:11.074Z,12.51
2023-05-12T08:31:11.165Z,12.59
2023-05-12T08:32:11.082Z,12.66
2023-05-12T08:33:11.098Z,12.72
2023-05-12T08:34:11.422Z,12.69
2023-05-12T08:35:11.083Z,12.73
2023-05-12T08:36:11.075Z,12.74
2023-05-12T08:37:11.074Z,12.78
2023-05-12T08:38:11.095Z,12.78
2023-05-12T08:39:11.087Z,12.75
2023-05-12T08:40:15.087Z,12.79
2023-05-12T08:41:18.081Z,12.84
2023-05-12T08:42:23.076Z,12.84
2023-05-12T08:43:19.074Z,12.85
2023-05-12T08:44:11.071Z,12.83
2023-05-12T08:45:11.081Z,12.86
2023-05-12T08:46:11.107Z,12.94
2023-05-12T08:47:11.084Z,12.99
2023-05-12T08:48:12.139Z,12.89
2023-05-12T08:49:12.101Z,12.98
2023-05-12T08:50:11.075Z,13.01
2023-05-12T08:51:11.081Z,13.10
2023-05-12T08:52:11.075Z,13.27
2023-05-12T08:53:12.086Z,13.32
2023-05-12T08:54:11.086Z,13.38
2023-05-12T08:55:11.146Z,13.42
2023-05-12T08:57:11.084Z,13.56
2023-05-12T08:58:11.085Z,13.58
2023-05-12T08:59:11.078Z,13.65
2023-05-12T09:00:11.092Z,13.70
2023-05-12T09:01:11.214Z,13.61
2023-05-12T09:02:11.184Z,13.62
2023-05-12T09:03:12.134Z,13.72
2023-05-12T09:04:11.145Z,13.80
2023-05-12T09:05:11.074Z,13.81
2023-05-12T09:06:11.076Z,13.70
2023-05-12T09:07:11.079Z,13.65
2023-05-12T09:08:11.075Z,13.68
2023-05-12T09:09:11.085Z,13.70
2023-05-12T09:10:29.827Z,13.74
2023-05-12T09:11:14.083Z,13.80
2023-05-12T09:12:14.050Z,13.79
2023-05-12T09:13:19.094Z,13.78
2023-05-12T09:14:18.080Z,13.76
2023-05-12T09:15:15.082Z,13.78
2023-05-12T09:16:13.156Z,13.86
2023-05-12T09:17:11.086Z,13.94
2023-05-12T09:18:11.077Z,13.99
2023-05-12T09:19:11.169Z,13.90
2023-05-12T09:20:20.575Z,13.73
2023-05-12T09:21:13.051Z,13.85
2023-05-12T09:22:11.081Z,13.98
2023-05-12T09:23:15.093Z,14.19
2023-05-12T09:24:11.083Z,14.16
2023-05-12T09:25:15.159Z,14.15
2023-05-12T09:26:11.085Z,14.06
2023-05-12T09:27:11.100Z,14.05
2023-05-12T09:28:11.081Z,13.99
2023-05-12T09:29:20.777Z,14.01
2023-05-12T09:30:13.076Z,14.05
2023-05-12T09:31:17.106Z,14.09
2023-05-12T09:32:11.121Z,14.13
2023-05-12T09:33:13.152Z,14.27
2023-05-12T09:34:11.086Z,14.31
2023-05-12T09:35:11.196Z,14.42
2023-05-12T09:36:11.083Z,14.53
2023-05-12T09:37:12.661Z,14.61
2023-05-12T09:38:11.084Z,14.68
2023-05-12T09:39:11.109Z,14.80
2023-05-12T09:40:11.088Z,14.75
2023-05-12T09:41:11.089Z,14.82
2023-05-12T09:42:13.090Z,14.88
2023-05-12T09:43:12.488Z,14.93
2023-05-12T09:44:11.092Z,14.98
2023-05-12T09:45:11.106Z,14.96
2023-05-12T09:46:11.128Z,14.94
2023-05-12T09:47:11.085Z,14.89
2023-05-12T09:48:11.099Z,14.87
2023-05-12T09:49:11.098Z,14.85
2023-05-12T09:50:11.093Z,14.77
2023-05-12T09:51:11.105Z,14.60
2023-05-12T09:52:11.090Z,14.66
2023-05-12T09:53:11.090Z,14.60
2023-05-12T09:54:11.090Z,14.67
2023-05-12T09:55:11.108Z,14.70
2023-05-12T09:56:13.087Z,14.63
2023-05-12T09:57:11.085Z,14.62
2023-05-12T09:58:11.092Z,14.65
2023-05-12T09:59:12.088Z,14.69
2023-05-12T10:00:31.155Z,14.69
2023-05-12T10:01:22.541Z,14.77
2023-05-12T10:02:13.066Z,14.65
2023-05-12T10:03:15.098Z,14.83
2023-05-12T10:04:11.135Z,14.77
2023-05-12T10:05:15.070Z,14.95
2023-05-12T10:06:14.065Z,15.06
2023-05-12T10:07:11.063Z,15.12
2023-05-12T10:08:13.068Z,15.26
2023-05-12T10:09:16.069Z,15.30
2023-05-12T10:10:11.066Z,15.53
2023-05-12T10:11:11.059Z,15.56
2023-05-12T10:12:11.065Z,15.51
2023-05-12T10:13:11.061Z,15.46
2023-05-12T10:14:12.064Z,15.51
2023-05-12T10:15:11.065Z,15.45
2023-05-12T10:16:11.087Z,15.28
2023-05-12T10:17:11.216Z,15.36
2023-05-12T10:18:11.151Z,15.30
2023-05-12T10:19:11.132Z,15.32
2023-05-12T10:20:11.072Z,15.31
2023-05-12T10:21:11.066Z,15.27
2023-05-12T10:22:12.078Z,15.25
2023-05-12T10:23:11.059Z,15.12
2023-05-12T10:24:11.065Z,15.12
2023-05-12T10:25:11.067Z,15.18
2023-05-12T10:26:11.061Z,15.26
2023-05-12T10:27:11.075Z,15.24
2023-05-12T10:28:11.067Z,15.33
2023-05-12T10:29:11.070Z,15.36
2023-05-12T10:30:11.078Z,15.35
2023-05-12T10:31:11.129Z,15.31
2023-05-12T10:32:11.070Z,15.30
2023-05-12T10:33:12.076Z,15.19
2023-05-12T10:34:17.064Z,15.28
2023-05-12T10:35:11.060Z,15.28
2023-05-12T10:36:19.072Z,15.21
2023-05-12T10:37:12.076Z,15.32
2023-05-12T10:38:13.076Z,15.34
2023-05-12T10:39:12.067Z,15.27
2023-05-12T10:40:11.076Z,15.21
2023-05-12T10:41:11.095Z,15.08
2023-05-12T10:42:11.067Z,15.19
2023-05-12T10:43:19.068Z,15.23
2023-05-12T10:44:11.066Z,15.25
2023-05-12T10:45:17.166Z,15.20
2023-05-12T10:46:17.134Z,15.12
2023-05-12T10:47:14.069Z,15.07
2023-05-12T10:48:15.080Z,15.05
2023-05-12T10:49:11.068Z,15.05
2023-05-12T10:50:11.080Z,14.98
2023-05-12T10:51:11.068Z,14.85
2023-05-12T10:52:12.071Z,14.95
2023-05-12T10:53:12.078Z,14.94
2023-05-12T10:54:11.070Z,15.01
2023-05-12T10:55:13.156Z,15.12
2023-05-12T10:56:11.368Z,15.08
2023-05-12T10:57:17.981Z,15.19
2023-05-12T10:58:13.423Z,15.13
2023-05-12T10:59:17.498Z,15.24
2023-05-12T11:00:13.621Z,15.25
2023-05-12T11:01:11.919Z,15.32
2023-05-12T11:02:17.709Z,15.44
2023-05-12T11:03:13.854Z,15.51
2023-05-12T11:04:15.437Z,15.54
2023-05-12T11:05:13.682Z,15.55
2023-05-12T11:06:15.725Z,15.68
2023-05-12T11:07:12.493Z,15.79
2023-05-12T11:08:11.776Z,15.89
2023-05-12T11:09:11.304Z,15.88
2023-05-12T11:10:11.221Z,16.01
2023-05-12T11:11:11.185Z,16.06
2023-05-12T11:12:11.081Z,16.12
2023-05-12T11:13:11.074Z,16.04
2023-05-12T11:14:11.077Z,16.00
2023-05-12T11:15:11.082Z,15.99
2023-05-12T11:16:13.093Z,15.89
2023-05-12T11:17:11.070Z,15.92
2023-05-12T11:18:11.086Z,15.90
2023-05-12T11:19:11.114Z,15.92
2023-05-12T11:20:11.098Z,15.93
2023-05-12T11:21:13.079Z,15.95
2023-05-12T11:22:11.085Z,15.94
2023-05-12T11:23:11.099Z,15.92
2023-05-12T11:24:12.190Z,15.97
2023-05-12T11:25:13.157Z,15.96
2023-05-12T11:26:17.080Z,15.90
2023-05-12T11:27:14.077Z,15.86
2023-05-12T11:28:12.083Z,15.82
2023-05-12T11:29:11.109Z,15.66
2023-05-12T11:30:11.112Z,15.68
2023-05-12T11:31:15.231Z,15.72
2023-05-12T11:32:11.143Z,15.67
2023-05-12T11:33:11.121Z,15.59
2023-05-12T11:34:13.023Z,15.58
2023-05-12T11:35:13.086Z,15.57
2023-05-12T11:36:11.079Z,15.56
2023-05-12T11:37:11.080Z,15.65
2023-05-12T11:38:15.086Z,15.66
2023-05-12T11:39:17.090Z,15.72
2023-05-12T11:40:20.102Z,15.71
2023-05-12T11:41:11.075Z,15.60
2023-05-12T11:42:13.282Z,15.50
2023-05-12T11:43:13.081Z,15.48
2023-05-12T11:44:17.086Z,15.47
2023-05-12T11:46:11.123Z,15.50
2023-05-12T11:47:16.074Z,15.57
2023-05-12T11:48:15.243Z,15.66
2023-05-12T11:49:13.078Z,15.65
2023-05-12T11:50:11.082Z,15.67
2023-05-12T11:51:11.077Z,15.69
2023-05-12T11:52:11.078Z,15.80
2023-05-12T11:53:13.086Z,15.82
2023-05-12T11:54:11.085Z,15.82
2023-05-12T11:55:11.082Z,15.76
2023-05-12T11:56:15.081Z,15.82
2023-05-12T11:57:11.081Z,15.85
2023-05-12T11:58:15.101Z,15.82
2023-05-12T11:59:11.102Z,15.76
2023-05-12T12:00:11.091Z,15.77
2023-05-12T12:01:11.102Z,15.86
2023-05-12T12:02:15.097Z,15.84
2023-05-12T12:03:11.212Z,15.73
2023-05-12T12:04:11.112Z,15.72
2023-05-12T12:05:17.101Z,15.69
2023-05-12T12:06:14.086Z,15.64
2023-05-12T12:07:11.086Z,15.57
2023-05-12T12:08:15.106Z,15.49
2023-05-12T12:09:11.084Z,15.52
2023-05-12T12:10:18.156Z,15.50
2023-05-12T12:11:11.092Z,15.54
2023-05-12T12:12:11.091Z,15.52
2023-05-12T12:13:11.087Z,15.69
2023-05-12T12:14:11.086Z,15.82
2023-05-12T12:15:11.092Z,15.85
2023-05-12T12:16:12.873Z,15.92
2023-05-12T12:17:11.088Z,15.88
2023-05-12T12:18:11.106Z,15.87
2023-05-12T12:19:11.155Z,15.89
2023-05-12T12:20:11.087Z,15.85
2023-05-12T12:21:11.096Z,15.79
2023-05-12T12:22:11.091Z,15.73
2023-05-12T12:23:11.090Z,15.77
2023-05-12T12:24:11.088Z,15.69
2023-05-12T12:25:11.101Z,15.63
2023-05-12T12:26:11.095Z,15.78
2023-05-12T12:27:11.102Z,15.96
2023-05-12T12:28:11.089Z,16.05
2023-05-12T12:29:11.101Z,16.30
2023-05-12T12:30:11.130Z,16.33
2023-05-12T12:31:11.159Z,16.51
2023-05-12T12:32:11.120Z,16.52
2023-05-12T12:33:11.179Z,16.42
2023-05-12T12:34:11.096Z,16.35
2023-05-12T12:35:11.097Z,16.45
2023-05-12T12:36:11.093Z,16.42
2023-05-12T12:37:11.091Z,16.37
2023-05-12T12:38:11.096Z,16.36
2023-05-12T12:39:11.090Z,16.32
2023-05-12T12:40:12.111Z,16.41
2023-05-12T12:41:11.102Z,16.44
2023-05-12T12:42:11.087Z,16.41
2023-05-12T12:43:11.093Z,16.48
2023-05-12T12:44:11.103Z,16.57
2023-05-12T12:45:11.092Z,16.58
2023-05-12T12:46:11.092Z,16.62
2023-05-12T12:47:11.173Z,16.58
2023-05-12T12:48:11.166Z,16.55
2023-05-12T12:49:11.095Z,16.45
2023-05-12T12:50:11.192Z,16.47
2023-05-12T12:51:11.095Z,16.26
2023-05-12T12:52:11.095Z,16.34
2023-05-12T12:53:11.114Z,16.24
2023-05-12T12:54:11.092Z,16.22
2023-05-12T12:55:11.096Z,16.19
2023-05-12T12:56:11.109Z,16.08